Time;durP1;ratioP1;P1;durP2;ratioP2;P2;SDS_P1;SDS_P2;PMS_P1;PMS_P2;Temp;Humidity;BMP_temperature;BMP_pressure;BME280_temperature;BME280_humidity;BME280_pressure;Samples;Min_cycle;Max_cycle;Signal;HPM_P1;HPM_P2
2024/04/17 00:01:48;;;;;;;3.85;1.27;;;;;;;8.47;100.00;100457.69;6776340;26;20009;-80
2024/04/17 00:04:50;;;;;;;3.55;1.10;;;;;;;8.42;100.00;100459.69;6776575;26;20005;-81
2024/04/17 00:07:51;;;;;;;9.60;1.77;;;;;;;8.42;100.00;100464.94;6776344;26;19991;-79
2024/04/17 00:10:54;;;;;;;15.88;1.67;;;;;;;8.30;100.00;100466.34;6776540;26;20273;-79
2024/04/17 00:13:57;;;;;;;7.35;1.27;;;;;;;8.28;100.00;100455.09;6776599;26;19995;-78
2024/04/17 00:17:00;;;;;;;5.55;1.20;;;;;;;8.26;100.00;100462.16;6776722;26;20663;-80
2024/04/17 00:20:04;;;;;;;6.82;1.40;;;;;;;8.42;100.00;100459.69;6776201;26;20052;-81
2024/04/17 00:23:07;;;;;;;6.47;1.63;;;;;;;8.33;100.00;100468.81;6776031;26;20374;-80
2024/04/17 00:26:07;;;;;;;7.88;1.52;;;;;;;8.24;100.00;100465.81;6775963;26;19990;-79
2024/04/17 00:29:10;;;;;;;5.57;1.90;;;;;;;8.20;100.00;100462.47;6776495;26;20059;-80
2024/04/17 00:32:13;;;;;;;8.38;1.95;;;;;;;8.20;100.00;100459.84;6775709;26;20363;-79
2024/04/17 00:35:16;;;;;;;10.90;5.28;;;;;;;8.19;100.00;100470.41;6776124;26;20371;-79
2024/04/17 00:38:19;;;;;;;12.02;5.47;;;;;;;8.16;100.00;100466.16;6775921;26;19995;-79
2024/04/17 00:41:20;;;;;;;14.38;6.75;;;;;;;8.07;100.00;100471.84;6775803;26;19991;-79
2024/04/17 00:44:23;;;;;;;12.77;4.40;;;;;;;8.04;100.00;100469.34;6775733;26;19999;-79
2024/04/17 00:47:28;;;;;;;8.32;3.78;;;;;;;8.08;100.00;100470.91;6776176;26;20055;-80
2024/04/17 00:50:32;;;;;;;16.10;4.70;;;;;;;8.03;100.00;100465.88;6775880;26;20427;-79
2024/04/17 00:53:37;;;;;;;10.27;3.63;;;;;;;8.00;100.00;100462.59;6775576;26;19990;-79
2024/04/17 00:56:39;;;;;;;11.20;2.10;;;;;;;7.75;100.00;100465.50;6775496;26;19991;-79
2024/04/17 00:59:43;;;;;;;10.95;1.98;;;;;;;7.68;100.00;100464.09;6775366;26;20001;-80
2024/04/17 01:02:46;;;;;;;13.57;1.73;;;;;;;7.70;100.00;100467.47;6775363;26;19991;-80
2024/04/17 01:05:49;;;;;;;10.70;1.17;;;;;;;7.63;100.00;100462.53;6775610;26;20010;-79
2024/04/17 01:08:49;;;;;;;6.00;1.30;;;;;;;7.63;100.00;100457.31;6775687;26;19991;-80
2024/04/17 01:11:53;;;;;;;9.65;1.15;;;;;;;7.56;100.00;100457.66;6775481;26;20097;-80
2024/04/17 01:14:54;;;;;;;4.70;1.27;;;;;;;7.60;100.00;100461.81;6775307;26;19991;-81
2024/04/17 01:18:01;;;;;;;5.07;1.70;;;;;;;7.48;100.00;100462.38;6774640;26;20059;-78
2024/04/17 01:21:05;;;;;;;3.13;1.17;;;;;;;7.41;100.00;100460.97;6774388;26;20044;-80
2024/04/17 01:24:08;;;;;;;9.13;1.42;;;;;;;7.45;100.00;100472.94;6767143;26;20069;-80
2024/04/17 01:27:11;;;;;;;16.08;1.13;;;;;;;7.41;100.00;100467.03;6767990;26;19998;-79
2024/04/17 01:30:11;;;;;;;5.80;1.20;;;;;;;7.28;100.00;100468.50;6759911;26;20448;-81
2024/04/17 01:33:14;;;;;;;6.90;1.05;;;;;;;7.30;100.00;100469.25;6774928;26;20002;-79
2024/04/17 01:36:15;;;;;;;1.23;0.75;;;;;;;7.31;100.00;100457.88;6774753;26;19990;-80
2024/04/17 01:39:20;;;;;;;4.15;1.40;;;;;;;7.30;100.00;100462.25;6760178;26;20449;-80
2024/04/17 01:42:23;;;;;;;8.02;1.60;;;;;;;7.31;100.00;100461.38;6774821;26;20415;-79
2024/04/17 01:45:24;;;;;;;12.32;1.50;;;;;;;7.21;100.00;100456.59;6774708;26;19998;-79
2024/04/17 01:48:27;;;;;;;2.38;1.10;;;;;;;7.33;100.00;100466.53;6774738;26;20019;-80
2024/04/17 01:51:27;;;;;;;8.25;1.38;;;;;;;7.33;100.00;100462.13;6746774;26;20097;-79
2024/04/17 01:54:33;;;;;;;4.03;0.82;;;;;;;7.27;100.00;100465.03;6729854;26;20015;-79
2024/04/17 01:57:33;;;;;;;3.90;1.67;;;;;;;7.30;100.00;100464.03;6728943;26;20305;-79
2024/04/17 02:00:37;;;;;;;2.40;1.40;;;;;;;7.33;100.00;100466.53;6750835;26;19999;-80
2024/04/17 02:03:40;;;;;;;5.88;1.20;;;;;;;7.28;100.00;100474.56;6759535;26;20070;-79
2024/04/17 02:06:41;;;;;;;7.45;1.35;;;;;;;7.14;100.00;100473.47;6742803;26;20017;-79
2024/04/17 02:09:46;;;;;;;4.28;1.35;;;;;;;7.11;100.00;100475.28;6744466;26;20031;-79
2024/04/17 02:12:46;;;;;;;1.95;1.00;;;;;;;7.15;100.00;100475.16;6772377;26;20319;-79
2024/04/17 02:15:49;;;;;;;2.05;0.85;;;;;;;7.16;100.00;100469.03;6758515;26;19999;-79
2024/04/17 02:18:50;;;;;;;3.85;1.40;;;;;;;7.10;100.00;100475.38;6759625;26;20047;-79
2024/04/17 02:21:53;;;;;;;7.60;0.95;;;;;;;7.14;100.00;100479.56;6768563;26;20034;-78
2024/04/17 02:24:59;;;;;;;1.80;0.98;;;;;;;7.11;100.00;100480.53;6763427;26;20060;-79
2024/04/17 02:28:01;;;;;;;9.00;1.15;;;;;;;7.13;100.00;100485.69;6752477;26;20003;-79
2024/04/17 02:31:02;;;;;;;7.03;1.00;;;;;;;7.05;100.00;100488.63;6772863;26;19999;-79
2024/04/17 02:34:05;;;;;;;6.25;1.17;;;;;;;6.98;100.00;100486.34;6758043;26;20089;-79
2024/04/17 02:37:08;;;;;;;3.63;1.20;;;;;;;7.01;100.00;100487.06;6758430;26;20084;-78
2024/04/17 02:40:12;;;;;;;10.02;1.70;;;;;;;6.97;100.00;100487.25;6773734;26;20312;-80
2024/04/17 02:43:15;;;;;;;3.28;0.68;;;;;;;7.02;100.00;100486.16;6773712;26;20260;-78
2024/04/17 02:46:15;;;;;;;2.67;0.82;;;;;;;6.98;100.00;100483.72;6773458;26;20359;-79
2024/04/17 02:49:18;;;;;;;2.95;0.88;;;;;;;6.96;100.00;100481.19;6773750;26;20022;-79
2024/04/17 02:52:18;;;;;;;3.80;0.88;;;;;;;6.98;100.00;100481.13;6758021;26;19999;-80
2024/04/17 02:55:24;;;;;;;5.70;1.40;;;;;;;6.98;100.00;100478.50;6773083;26;19999;-81
2024/04/17 02:58:27;;;;;;;1.38;0.85;;;;;;;6.95;100.00;100489.06;6773209;26;20304;-81
2024/04/17 03:01:27;;;;;;;3.67;0.95;;;;;;;6.96;100.00;100491.63;6760759;26;20053;-80
2024/04/17 03:04:30;;;;;;;10.88;1.40;;;;;;;6.97;100.00;100489.88;6770302;26;20027;-78
2024/04/17 03:07:31;;;;;;;7.60;1.08;;;;;;;6.95;100.00;100484.72;6773512;26;20045;-79
2024/04/17 03:10:37;;;;;;;2.00;0.68;;;;;;;6.93;100.00;100490.91;6777673;26;20023;-79
2024/04/17 03:13:40;;;;;;;4.22;0.90;;;;;;;6.90;100.00;100486.66;6762339;26;20011;-78
2024/04/17 03:16:40;;;;;;;4.32;0.70;;;;;;;6.83;100.00;100488.69;6777253;26;19995;-79
2024/04/17 03:19:43;;;;;;;2.53;0.70;;;;;;;6.85;100.00;100496.44;6777711;26;19998;-79
2024/04/17 03:22:46;;;;;;;7.00;1.73;;;;;;;6.84;100.00;100499.97;6777490;26;20005;-79
2024/04/17 03:25:58;;;;;;;5.70;1.27;;;;;;;6.89;100.00;100497.19;6777268;26;19987;-81
2024/04/17 03:28:58;;;;;;;8.00;1.75;;;;;;;6.87;100.00;100494.63;6777700;26;20255;-79
2024/04/17 03:32:03;;;;;;;6.38;1.40;;;;;;;6.86;100.00;100496.41;6777179;26;20040;-79
2024/04/17 03:35:08;;;;;;;4.43;1.00;;;;;;;6.87;100.00;100492.03;6777077;26;20352;-79
2024/04/17 03:38:10;;;;;;;8.10;1.00;;;;;;;6.62;100.00;100502.63;6777133;26;20006;-80
2024/04/17 03:41:16;;;;;;;4.88;1.38;;;;;;;6.41;100.00;100500.91;6777082;26;19999;-78
2024/04/17 03:44:19;;;;;;;12.20;1.25;;;;;;;6.37;100.00;100502.78;6777051;26;19994;-78
2024/04/17 03:47:22;;;;;;;6.03;1.20;;;;;;;6.49;100.00;100507.50;6776907;26;20055;-79
2024/04/17 03:50:25;;;;;;;4.22;1.38;;;;;;;6.54;100.00;100508.19;6777007;26;20378;-80
2024/04/17 03:53:25;;;;;;;12.10;1.42;;;;;;;6.64;100.00;100515.63;6776728;26;20056;-78
2024/04/17 03:56:31;;;;;;;5.20;1.23;;;;;;;6.61;100.00;100512.22;6833613;21;20010;-79
2024/04/17 03:59:32;;;;;;;2.80;0.98;;;;;;;6.65;100.00;100519.94;6821944;26;20282;-79
2024/04/17 04:02:35;;;;;;;6.13;1.30;;;;;;;6.64;100.00;100516.50;6821283;26;20063;-79
2024/04/17 04:05:38;;;;;;;2.10;0.93;;;;;;;6.51;100.00;100523.13;6822840;26;20069;-79
2024/04/17 04:08:38;;;;;;;5.25;1.30;;;;;;;6.47;100.00;100517.16;6788023;26;20003;-79
2024/04/17 04:11:44;;;;;;;3.35;0.75;;;;;;;6.41;100.00;100520.03;6805730;26;20070;-80
2024/04/17 04:14:44;;;;;;;5.28;0.88;;;;;;;6.28;100.00;100524.88;6778695;26;19998;-79
2024/04/17 04:17:47;;;;;;;5.22;1.40;;;;;;;6.29;100.00;100525.72;6821616;26;20296;-80
2024/04/17 04:20:50;;;;;;;10.25;1.20;;;;;;;6.42;100.00;100528.69;6821129;26;20058;-79
2024/04/17 04:23:51;;;;;;;2.17;1.23;;;;;;;6.42;100.00;100526.94;6821596;26;20042;-79
2024/04/17 04:26:56;;;;;;;10.15;1.40;;;;;;;6.46;100.00;100536.34;6801754;26;20075;-80
2024/04/17 04:29:57;;;;;;;5.60;1.10;;;;;;;6.51;100.00;100539.63;6811236;26;20053;-79
2024/04/17 04:33:00;;;;;;;4.07;1.75;;;;;;;6.46;100.00;100541.56;6796976;26;20355;-79
2024/04/17 04:36:00;;;;;;;4.15;1.50;;;;;;;6.49;100.00;100546.66;6803934;26;20078;-79
2024/04/17 04:39:03;;;;;;;2.03;0.88;;;;;;;6.60;100.00;100551.47;6802723;26;20383;-79
2024/04/17 04:42:07;;;;;;;5.82;1.27;;;;;;;6.63;100.00;100548.69;6799484;26;20030;-79
2024/04/17 04:45:10;;;;;;;2.55;1.08;;;;;;;6.68;100.00;100552.00;6791079;26;20022;-79
2024/04/17 04:48:13;;;;;;;9.88;1.25;;;;;;;6.58;100.00;100554.09;6775903;26;19994;-79
2024/04/17 04:51:14;;;;;;;3.28;1.10;;;;;;;6.58;100.00;100550.66;6784035;26;20066;-79
2024/04/17 04:54:17;;;;;;;1.85;1.13;;;;;;;6.57;100.00;100544.59;6805775;26;20002;-80
2024/04/17 04:57:22;;;;;;;2.42;1.30;;;;;;;6.52;100.00;100548.31;6821113;26;20055;-79
2024/04/17 05:00:23;;;;;;;1.75;1.05;;;;;;;6.43;100.00;100549.50;6821299;26;19990;-80
2024/04/17 05:03:26;;;;;;;11.60;1.30;;;;;;;6.46;100.00;100551.16;6794335;26;20017;-78
2024/04/17 05:06:27;;;;;;;2.90;1.20;;;;;;;6.55;100.00;100549.03;6802177;26;20034;-79
2024/04/17 05:09:30;;;;;;;2.55;1.10;;;;;;;6.71;100.00;100558.84;6820968;26;20054;-79
2024/04/17 05:12:35;;;;;;;4.93;1.40;;;;;;;6.64;100.00;100563.47;6820808;26;20070;-79
2024/04/17 05:15:38;;;;;;;2.47;1.20;;;;;;;6.61;100.00;100560.97;6820621;26;20289;-79
2024/04/17 05:18:39;;;;;;;10.48;1.15;;;;;;;6.64;100.00;100570.47;6820806;26;20254;-79
2024/04/17 05:21:42;;;;;;;3.13;1.20;;;;;;;6.67;100.00;100573.78;6820775;26;20051;-80
2024/04/17 05:24:42;;;;;;;10.15;1.17;;;;;;;6.70;100.00;100572.81;6819969;26;20294;-78
2024/04/17 05:27:48;;;;;;;7.50;1.13;;;;;;;6.68;100.00;100566.84;6819951;26;20058;-80
2024/04/17 05:30:57;;;;;;;1.65;1.02;;;;;;;6.75;100.00;100565.66;6818958;26;20058;-77
2024/04/17 05:33:58;;;;;;;4.57;0.95;;;;;;;6.79;100.00;100568.09;6820347;26;20002;-78
2024/04/17 05:37:01;;;;;;;5.70;1.42;;;;;;;6.91;100.00;100568.50;6820160;26;20427;-78
2024/04/17 05:40:04;;;;;;;6.93;1.35;;;;;;;6.86;100.00;100571.31;6820280;26;19990;-80
2024/04/17 05:43:07;;;;;;;1.85;1.17;;;;;;;6.74;100.00;100570.03;6819930;26;20002;-80
2024/04/17 05:46:10;;;;;;;2.22;1.13;;;;;;;6.61;100.00;100577.50;6820066;26;20005;-79
2024/04/17 05:49:13;;;;;;;9.45;1.33;;;;;;;6.74;100.00;100571.78;6820130;26;20300;-79
2024/04/17 05:52:14;;;;;;;6.32;1.13;;;;;;;6.88;100.00;100581.69;6807842;26;20003;-80
2024/04/17 05:55:17;;;;;;;6.57;1.30;;;;;;;6.92;100.00;100576.28;6762273;26;20079;-78
2024/04/17 05:58:20;;;;;;;10.57;1.48;;;;;;;6.86;100.00;100581.75;6792164;26;20013;-78
2024/04/17 06:01:24;;;;;;;8.27;1.33;;;;;;;6.90;100.00;100582.47;6791482;26;20003;-79
2024/04/17 06:04:27;;;;;;;8.18;1.48;;;;;;;6.97;100.00;100587.38;6785256;26;20035;-79
2024/04/17 06:07:27;;;;;;;10.10;1.40;;;;;;;7.10;100.00;100587.72;6788648;26;20097;-78
2024/04/17 06:10:30;;;;;;;6.47;1.10;;;;;;;7.04;100.00;100591.44;6781139;26;20011;-78
2024/04/17 06:13:49;;;;;;;5.95;1.77;;;;;;;7.04;100.00;100587.97;6801503;26;20070;-78
2024/04/17 06:16:49;;;;;;;5.28;1.35;;;;;;;7.14;100.00;100586.69;6760478;26;20275;-78
2024/04/17 06:19:53;;;;;;;6.25;1.63;;;;;;;7.26;100.00;100590.53;6765969;26;20013;-79
2024/04/17 06:22:53;;;;;;;2.80;1.30;;;;;;;7.31;100.00;100592.06;6783977;26;20003;-77
2024/04/17 06:25:57;;;;;;;2.95;1.10;;;;;;;7.30;100.00;100590.34;6766159;26;20394;-81
2024/04/17 06:29:03;;;;;;;6.15;1.35;;;;;;;7.41;100.00;100589.06;6776752;26;20070;-76
2024/04/17 06:32:04;;;;;;;16.27;1.70;;;;;;;7.48;100.00;100588.72;6788267;26;20002;-80
2024/04/17 06:35:07;;;;;;;3.58;1.52;;;;;;;7.49;100.00;100589.56;6784752;26;20250;-76
2024/04/17 06:38:08;;;;;;;5.72;1.23;;;;;;;7.53;100.00;100596.34;6787375;26;20014;-75
2024/04/17 06:41:11;;;;;;;5.93;1.38;;;;;;;7.68;100.00;100594.88;6793101;26;20442;-78
2024/04/17 06:44:16;;;;;;;3.85;1.10;;;;;;;7.68;100.00;100593.09;6804372;26;20051;-80
2024/04/17 06:47:20;;;;;;;7.45;1.13;;;;;;;7.75;100.00;100591.88;6787840;26;20002;-84
2024/04/17 06:50:20;;;;;;;3.10;1.25;;;;;;;7.77;100.00;100594.47;6824972;26;19997;-84
2024/04/17 06:53:24;;;;;;;9.07;1.65;;;;;;;7.62;100.00;100604.66;6824398;26;19996;-85
2024/04/17 06:56:28;;;;;;;8.02;1.88;;;;;;;7.59;100.00;100598.72;6824707;26;20070;-85
2024/04/17 06:59:31;;;;;;;10.50;1.65;;;;;;;7.68;100.00;100602.72;6824259;26;20009;-84
2024/04/17 07:02:34;;;;;;;6.40;1.48;;;;;;;7.75;100.00;100601.50;6824886;26;19994;-84
2024/04/17 07:05:37;;;;;;;6.72;1.80;;;;;;;7.85;100.00;100597.56;6824327;26;20005;-84
2024/04/17 07:08:41;;;;;;;4.70;1.30;;;;;;;7.84;100.00;100603.72;6824488;26;19990;-82
2024/04/17 07:11:44;;;;;;;3.70;1.45;;;;;;;7.85;100.00;100597.56;6824923;26;20022;-84
2024/04/17 07:14:48;;;;;;;6.35;1.90;;;;;;;7.78;100.00;100598.75;6826486;26;19998;-84
2024/04/17 07:17:51;;;;;;;3.70;1.30;;;;;;;7.74;100.00;100605.03;6825841;26;20009;-82
2024/04/17 07:20:52;;;;;;;18.67;2.35;;;;;;;7.76;100.00;100606.66;6824714;26;19990;-83
2024/04/17 07:23:56;;;;;;;5.00;1.52;;;;;;;7.79;100.00;100608.31;6823833;26;20018;-84
2024/04/17 07:26:56;;;;;;;2.75;1.33;;;;;;;7.92;100.00;100614.69;6823210;26;20002;-84
2024/04/17 07:30:02;;;;;;;2.13;1.33;;;;;;;8.13;100.00;100615.50;6824203;26;20043;-85
2024/04/17 07:33:03;;;;;;;6.63;1.67;;;;;;;8.14;100.00;100606.75;6823536;26;20035;-84
2024/04/17 07:36:06;;;;;;;5.20;1.80;;;;;;;8.36;100.00;100601.38;6824119;26;19990;-82
2024/04/17 07:39:07;;;;;;;6.13;1.58;;;;;;;8.61;100.00;100601.94;6823608;26;19998;-84
2024/04/17 07:42:10;;;;;;;7.97;1.38;;;;;;;8.76;100.00;100596.88;6823065;26;20062;-83
2024/04/17 07:45:16;;;;;;;4.88;1.60;;;;;;;8.83;100.00;100607.00;6823385;26;20001;-79
2024/04/17 07:48:16;;;;;;;13.27;2.17;;;;;;;9.01;100.00;100600.00;6823400;26;20319;-83
2024/04/17 07:51:19;;;;;;;9.48;1.83;;;;;;;9.19;100.00;100603.50;6822835;26;20002;-82
2024/04/17 07:54:20;;;;;;;4.57;1.75;;;;;;;9.37;100.00;100614.84;6822129;26;19994;-85
2024/04/17 07:57:23;;;;;;;5.38;1.20;;;;;;;9.52;100.00;100610.59;6823611;26;20292;-84
2024/04/17 08:00:29;;;;;;;4.25;1.77;;;;;;;9.61;100.00;100605.69;6823217;26;20062;-83
2024/04/17 08:03:29;;;;;;;5.88;1.98;;;;;;;9.77;100.00;100608.41;6822775;26;19994;-84
2024/04/17 08:06:32;;;;;;;5.97;1.30;;;;;;;9.85;100.00;100608.81;6822825;26;19990;-83
2024/04/17 08:09:36;;;;;;;2.40;1.38;;;;;;;9.97;100.00;100620.47;6822943;26;20042;-83
2024/04/17 08:12:40;;;;;;;2.47;1.40;;;;;;;10.04;100.00;100610.50;6822051;26;20000;-81
2024/04/17 08:15:47;;;;;;;1.75;1.10;;;;;;;10.15;100.00;100598.47;6822797;26;19990;-84
2024/04/17 08:18:50;;;;;;;6.82;1.27;;;;;;;10.32;99.64;100604.63;6822199;26;19990;-79
2024/04/17 08:21:53;;;;;;;8.85;1.30;;;;;;;10.36;94.82;100601.75;6822037;26;20046;-82
2024/04/17 08:24:56;;;;;;;1.27;0.90;;;;;;;10.38;95.38;100599.88;6822459;26;19994;-84
2024/04/17 08:27:57;;;;;;;7.80;1.42;;;;;;;10.27;95.09;100591.75;6822377;26;19991;-80
2024/04/17 08:31:02;;;;;;;2.88;1.25;;;;;;;10.27;92.50;100598.78;6822278;26;20058;-85
2024/04/17 08:34:03;;;;;;;4.82;1.10;;;;;;;10.15;95.40;100606.34;6822110;26;20058;-84
2024/04/17 08:37:07;;;;;;;6.40;1.30;;;;;;;10.05;98.62;100604.31;6821782;26;19998;-84
2024/04/17 08:40:14;;;;;;;6.68;1.60;;;;;;;10.05;99.64;100606.94;6822066;26;20054;-83
2024/04/17 08:43:24;;;;;;;5.50;1.45;;;;;;;10.03;100.00;100616.66;6822209;26;20058;-82
2024/04/17 08:46:30;;;;;;;4.93;1.48;;;;;;;10.08;100.00;100612.88;6821955;26;20004;-85
2024/04/17 08:49:35;;;;;;;4.93;1.15;;;;;;;10.12;96.25;100613.53;6822641;26;19998;-82
2024/04/17 08:52:40;;;;;;;9.52;1.75;;;;;;;10.03;98.69;100620.13;6821777;26;19995;-84
2024/04/17 08:55:43;;;;;;;6.28;1.45;;;;;;;10.01;97.16;100619.38;6822263;26;20034;-85
2024/04/17 08:58:48;;;;;;;6.68;1.42;;;;;;;10.04;95.42;100613.13;6821786;26;19994;-83
2024/04/17 09:01:55;;;;;;;4.20;1.27;;;;;;;10.19;96.90;100614.06;6821804;26;19994;-83
2024/04/17 09:04:55;;;;;;;9.95;2.42;;;;;;;10.39;95.23;100605.97;6820281;26;20062;-83
2024/04/17 09:08:01;;;;;;;3.20;1.30;;;;;;;10.38;93.62;100610.38;6820899;26;20051;-84
2024/04/17 09:11:04;;;;;;;7.60;2.55;;;;;;;10.44;94.78;100608.34;6821052;26;20052;-82
2024/04/17 09:14:05;;;;;;;7.47;1.35;;;;;;;10.74;91.61;100611.06;6821548;26;20005;-84
2024/04/17 09:17:10;;;;;;;4.80;1.50;;;;;;;10.81;92.10;100612.41;6821247;26;20254;-82
2024/04/17 09:20:12;;;;;;;4.47;1.20;;;;;;;10.78;87.90;100607.34;6821648;26;19997;-84
2024/04/17 09:23:15;;;;;;;4.50;1.33;;;;;;;10.66;86.23;100607.06;6821719;26;20243;-85
2024/04/17 09:26:17;;;;;;;3.10;1.10;;;;;;;10.71;83.37;100606.81;6821711;26;19990;-84
2024/04/17 09:29:20;;;;;;;10.32;1.05;;;;;;;10.74;83.12;100606.66;6821221;26;20239;-85
2024/04/17 09:32:23;;;;;;;3.10;1.10;;;;;;;10.82;84.19;100600.97;6821385;26;20002;-85
2024/04/17 09:35:26;;;;;;;6.40;1.27;;;;;;;10.95;79.76;100595.88;6821449;26;19994;-85
2024/04/17 09:38:26;;;;;;;5.65;1.50;;;;;;;11.00;80.60;100593.81;6821652;26;19994;-84
2024/04/17 09:41:32;;;;;;;3.55;0.93;;;;;;;11.26;76.41;100594.91;6821496;26;20370;-85
2024/04/17 09:44:37;;;;;;;7.50;1.20;;;;;;;11.54;70.97;100588.91;6821421;26;19994;-85
2024/04/17 09:47:43;;;;;;;3.17;1.00;;;;;;;11.56;72.08;100593.13;6821593;26;19998;-85
2024/04/17 09:50:47;;;;;;;4.25;0.77;;;;;;;11.52;68.65;100590.75;6821527;26;19998;-85
2024/04/17 09:53:53;;;;;;;8.48;1.40;;;;;;;11.45;68.91;100589.44;6822795;26;20030;-84
2024/04/17 09:56:57;;;;;;;5.38;1.20;;;;;;;11.42;69.39;100590.47;6823109;26;19994;-85
2024/04/17 10:00:02;;;;;;;7.88;0.90;;;;;;;11.33;71.10;100589.22;6822184;26;19995;-84
2024/04/17 10:03:10;;;;;;;3.75;1.00;;;;;;;11.39;70.69;100585.38;6821190;26;20001;-84
2024/04/17 10:06:11;;;;;;;3.67;1.00;;;;;;;11.38;69.47;100589.78;6821344;26;19991;-84
2024/04/17 10:09:15;;;;;;;4.75;1.48;;;;;;;11.28;67.79;100591.28;6823756;26;20052;-84
2024/04/17 10:12:17;;;;;;;5.05;0.95;;;;;;;11.27;70.21;100596.63;6820493;26;19990;-83
2024/04/17 10:15:20;;;;;;;4.70;1.08;;;;;;;11.24;72.22;100589.75;6819975;26;20009;-83
2024/04/17 10:18:24;;;;;;;0.73;0.63;;;;;;;11.15;72.04;100598.19;6822925;26;19991;-83
2024/04/17 10:21:27;;;;;;;1.25;0.75;;;;;;;10.96;77.14;100600.19;6825122;26;20001;-82
2024/04/17 10:24:28;;;;;;;4.85;1.27;;;;;;;10.85;78.42;100599.00;6824846;26;20382;-84
2024/04/17 10:27:31;;;;;;;2.88;1.00;;;;;;;10.76;65.82;100593.41;6824540;26;20002;-84
2024/04/17 10:30:35;;;;;;;5.38;2.05;;;;;;;10.79;65.49;100606.41;6824864;26;19990;-80
2024/04/17 10:33:41;;;;;;;11.00;2.45;;;;;;;10.79;73.41;100612.50;6825909;26;20029;-84
2024/04/17 10:36:51;;;;;;;2.15;1.02;;;;;;;10.28;78.31;100624.97;6824445;26;19990;-83
2024/04/17 10:39:56;;;;;;;3.40;1.05;;;;;;;10.15;80.60;100626.50;6824218;26;20022;-83
2024/04/17 10:42:57;;;;;;;1.65;0.88;;;;;;;10.01;82.96;100632.50;6824818;26;20303;-84
2024/04/17 10:46:01;;;;;;;5.95;0.90;;;;;;;10.05;81.20;100630.56;6825041;26;19990;-82
2024/04/17 10:49:17;;;;;;;3.60;1.02;;;;;;;9.98;78.74;100629.19;6824321;26;20001;-82
2024/04/17 10:52:18;;;;;;;0.93;0.70;;;;;;;9.73;78.75;100634.88;6823514;26;20054;-85
2024/04/17 10:55:22;;;;;;;2.33;0.68;;;;;;;9.65;80.37;100638.72;6824306;26;19994;-84
2024/04/17 10:58:23;;;;;;;4.32;0.93;;;;;;;9.39;83.82;100628.72;6823240;26;19994;-82
2024/04/17 11:01:26;;;;;;;1.45;0.98;;;;;;;9.40;83.01;100635.63;6823730;26;20054;-80
2024/04/17 11:04:29;;;;;;;3.75;1.10;;;;;;;9.57;81.71;100640.03;6823928;26;20000;-78
2024/04/17 11:07:33;;;;;;;1.65;0.57;;;;;;;9.53;84.50;100641.13;6824434;26;19994;-80
2024/04/17 11:10:33;;;;;;;0.90;0.80;;;;;;;9.67;84.13;100649.13;6824153;26;19994;-82
2024/04/17 11:13:42;;;;;;;4.10;1.45;;;;;;;9.80;80.13;100649.38;6824028;26;20071;-80
2024/04/17 11:16:46;;;;;;;0.98;0.73;;;;;;;9.86;80.68;100649.91;6823949;26;19998;-79
2024/04/17 11:19:49;;;;;;;1.15;0.55;;;;;;;9.93;79.47;100660.06;6824071;26;20005;-81
2024/04/17 11:22:52;;;;;;;3.00;0.65;;;;;;;9.95;80.66;100645.97;6823646;26;20009;-83
2024/04/17 11:25:52;;;;;;;8.15;1.38;;;;;;;10.07;78.72;100645.28;6823253;26;20034;-81
2024/04/17 11:28:55;;;;;;;3.22;0.60;;;;;;;9.99;79.39;100651.88;6822341;26;19998;-82
2024/04/17 11:31:58;;;;;;;2.03;1.00;;;;;;;9.65;80.57;100648.38;6822877;26;19990;-83
2024/04/17 11:35:14;;;;;;;2.30;0.80;;;;;;;9.84;82.05;100654.38;6823523;26;20250;-83
2024/04/17 11:38:16;;;;;;;8.75;0.90;;;;;;;9.71;80.85;100652.47;6823181;26;20706;-77
2024/04/17 11:41:19;;;;;;;3.38;1.20;;;;;;;9.68;81.27;100658.72;6822806;26;20639;-81
2024/04/17 11:44:20;;;;;;;3.70;1.02;;;;;;;9.94;80.89;100649.50;6823104;26;20002;-81
2024/04/17 11:47:23;;;;;;;1.90;0.80;;;;;;;10.07;81.10;100649.69;6823271;26;20382;-80
2024/04/17 11:50:29;;;;;;;1.95;1.48;;;;;;;10.14;81.53;100646.69;6822662;26;20054;-82
2024/04/17 11:53:32;;;;;;;0.60;0.60;;;;;;;10.20;73.97;100642.88;6823046;26;19998;-84
2024/04/17 11:56:32;;;;;;;1.40;0.90;;;;;;;10.26;70.71;100647.81;6823106;26;20369;-83
2024/04/17 11:59:36;;;;;;;4.20;0.75;;;;;;;10.34;69.87;100637.75;6823647;26;19997;-83
2024/04/17 12:02:37;;;;;;;1.73;0.80;;;;;;;10.25;69.79;100643.50;6823375;26;20414;-84
2024/04/17 12:05:43;;;;;;;1.55;0.80;;;;;;;10.39;70.75;100640.97;6823446;26;19998;-82
2024/04/17 12:08:43;;;;;;;1.25;0.77;;;;;;;10.45;71.53;100633.72;6823121;26;19994;-84
2024/04/17 12:11:46;;;;;;;2.60;0.73;;;;;;;10.54;73.03;100627.97;6823077;26;20006;-84
2024/04/17 12:14:46;;;;;;;5.00;0.80;;;;;;;10.79;70.81;100633.53;6824643;26;19994;-81
2024/04/17 12:17:50;;;;;;;2.00;0.70;;;;;;;10.78;68.98;100633.63;6825286;26;20106;-83
2024/04/17 12:20:55;;;;;;;4.78;0.82;;;;;;;10.94;67.42;100634.44;6823283;26;20058;-84
2024/04/17 12:23:56;;;;;;;2.78;0.70;;;;;;;11.05;69.94;100634.69;6822639;26;20358;-85
2024/04/17 12:26:59;;;;;;;3.33;1.05;;;;;;;11.41;65.74;100628.25;6822323;26;20006;-85
2024/04/17 12:30:02;;;;;;;5.55;0.73;;;;;;;11.51;66.36;100631.19;6822707;26;19990;-85
2024/04/17 12:33:05;;;;;;;0.93;0.60;;;;;;;11.60;67.90;100641.16;6822283;26;19994;-83
2024/04/17 12:36:11;;;;;;;3.03;0.60;;;;;;;11.79;65.49;100640.91;6822702;26;20039;-85
2024/04/17 12:39:14;;;;;;;1.00;0.70;;;;;;;11.63;65.41;100631.31;6822526;26;19990;-86
2024/04/17 12:42:17;;;;;;;1.23;0.90;;;;;;;11.89;68.46;100640.28;6822954;26;20050;-86
2024/04/17 12:45:20;;;;;;;1.20;0.70;;;;;;;12.21;70.09;100640.09;6823025;26;20287;-86
2024/04/17 12:48:24;;;;;;;4.18;1.05;;;;;;;12.26;65.17;100640.66;6822524;26;19994;-86
2024/04/17 12:51:30;;;;;;;2.35;1.08;;;;;;;12.39;66.49;100643.38;6822516;26;20076;-86
2024/04/17 12:54:33;;;;;;;1.27;0.93;;;;;;;12.55;66.04;100643.28;6822236;26;19994;-86
2024/04/17 12:57:36;;;;;;;2.92;1.00;;;;;;;12.58;64.08;100649.22;6822277;26;20005;-86
2024/04/17 13:00:40;;;;;;;1.20;0.70;;;;;;;12.19;65.39;100649.91;6822355;26;20058;-85
2024/04/17 13:03:40;;;;;;;1.70;0.70;;;;;;;11.71;67.90;100645.78;6822134;26;20269;-86
2024/04/17 13:06:48;;;;;;;1.63;0.93;;;;;;;11.51;73.03;100645.19;6822857;26;19998;-85
2024/04/17 13:09:51;;;;;;;2.92;0.80;;;;;;;11.56;73.62;100648.38;6822410;26;19995;-85
2024/04/17 13:12:52;;;;;;;1.52;0.90;;;;;;;11.59;72.76;100652.63;6821851;26;19990;-86
2024/04/17 13:15:59;;;;;;;4.88;1.20;;;;;;;11.58;72.01;100648.28;6822013;26;20332;-86
2024/04/17 13:19:00;;;;;;;3.63;1.20;;;;;;;11.46;70.99;100657.75;6821550;26;19995;-85
2024/04/17 13:22:05;;;;;;;2.83;1.10;;;;;;;11.45;73.97;100650.81;6821693;26;19994;-85
2024/04/17 13:25:06;;;;;;;6.40;1.20;;;;;;;11.36;72.91;100657.47;6821602;26;19994;-84
2024/04/17 13:28:09;;;;;;;1.80;0.95;;;;;;;11.48;73.21;100655.88;6821356;26;19990;-84
2024/04/17 13:31:10;;;;;;;1.23;1.02;;;;;;;11.46;71.71;100649.03;6821652;26;20054;-85
2024/04/17 13:34:13;;;;;;;3.40;0.93;;;;;;;11.32;71.25;100647.19;6821755;26;20000;-84
2024/04/17 13:37:19;;;;;;;1.88;1.00;;;;;;;11.15;75.18;100649.00;6821433;26;19994;-85
2024/04/17 13:40:19;;;;;;;3.72;0.85;;;;;;;11.11;71.20;100647.47;6821364;26;20423;-82
2024/04/17 13:43:23;;;;;;;1.80;0.90;;;;;;;11.13;68.41;100650.03;6821470;26;19994;-84
2024/04/17 13:46:26;;;;;;;2.92;1.00;;;;;;;11.22;72.09;100638.13;6821462;26;20002;-85
2024/04/17 13:49:26;;;;;;;4.38;1.35;;;;;;;11.31;76.57;100648.09;6820430;26;20001;-84
2024/04/17 13:52:34;;;;;;;4.38;1.67;;;;;;;11.31;77.63;100648.09;6820099;26;19990;-85
2024/04/17 13:55:35;;;;;;;1.85;1.10;;;;;;;11.42;74.93;100649.19;6820597;26;19990;-86
2024/04/17 13:58:38;;;;;;;4.50;1.17;;;;;;;11.39;72.45;100640.63;6820926;26;20381;-86
2024/04/17 14:01:39;;;;;;;4.88;1.20;;;;;;;11.60;71.59;100643.78;6820547;26;19994;-84
2024/04/17 14:04:42;;;;;;;3.00;1.60;;;;;;;11.65;71.74;100641.72;6820570;26;20062;-85
2024/04/17 14:07:45;;;;;;;1.05;0.90;;;;;;;11.48;69.09;100645.34;6820568;26;20039;-85
2024/04/17 14:10:48;;;;;;;5.30;1.05;;;;;;;11.31;71.59;100640.22;6820765;26;20373;-85